Time;durP1;ratioP1;P1;durP2;ratioP2;P2;SDS_P1;SDS_P2;PMS_P1;PMS_P2;Temp;Humidity;BMP_temperature;BMP_pressure;BME280_temperature;BME280_humidity;BME280_pressure;Samples;Min_cycle;Max_cycle;Signal;HPM_P1;HPM_P2
2021/01/07 00:01:17;;;;;;;3.28;1.13;;;2.10;99.90;;;;;;5046145;28;20071;-62
2021/01/07 00:10:55;;;;;;;2.00;1.38;;;2.10;99.90;;;;;;5064037;28;20119;-62
2021/01/07 00:13:26;;;;;;;2.83;1.15;;;2.10;99.90;;;;;;5057704;28;20037;-62
2021/01/07 00:16:06;;;;;;;1.88;0.90;;;2.10;99.90;;;;;;5058650;28;20044;-62
2021/01/07 00:25:55;;;;;;;1.13;0.57;;;2.20;99.90;;;;;;5033466;28;20080;-62
2021/01/07 00:28:28;;;;;;;2.58;0.85;;;2.10;99.90;;;;;;5033015;28;20057;-62
2021/01/07 00:31:00;;;;;;;1.65;0.73;;;2.20;99.90;;;;;;5048951;28;20102;-62
2021/01/07 00:33:26;;;;;;;1.55;0.90;;;2.20;99.90;;;;;;5053418;28;20493;-62
2021/01/07 00:35:58;;;;;;;1.95;0.93;;;2.20;99.90;;;;;;5056458;28;20052;-62
2021/01/07 00:38:27;;;;;;;1.70;0.73;;;2.30;99.90;;;;;;5033436;28;20386;-62
2021/01/07 00:40:57;;;;;;;2.05;0.80;;;2.20;99.90;;;;;;5055223;28;20114;-62
2021/01/07 00:43:31;;;;;;;2.05;1.00;;;2.20;99.90;;;;;;5033626;28;20044;-62
2021/01/07 00:46:04;;;;;;;;;;;2.10;99.90;;;;;;5057225;28;20045;-62
2021/01/07 00:48:33;;;;;;;3.35;0.50;;;2.20;99.90;;;;;;5062047;28;19916;-62
2021/01/07 00:51:09;;;;;;;1.40;0.75;;;2.20;99.90;;;;;;5063112;28;20139;-62
2021/01/07 00:53:41;;;;;;;2.88;0.90;;;2.10;99.90;;;;;;5058743;28;20503;-62
2021/01/07 00:56:09;;;;;;;4.70;0.95;;;2.20;99.90;;;;;;5069560;28;20043;-62
2021/01/07 00:58:42;;;;;;;1.95;1.00;;;2.10;99.90;;;;;;5069411;28;20130;-62
2021/01/07 01:01:09;;;;;;;2.92;1.05;;;2.20;99.90;;;;;;5059448;28;20090;-62
2021/01/07 01:03:36;;;;;;;1.73;0.90;;;2.20;99.90;;;;;;5068091;28;20036;-62
2021/01/07 01:06:08;;;;;;;1.60;0.70;;;2.20;99.90;;;;;;5033363;28;20136;-62
2021/01/07 01:08:40;;;;;;;1.95;0.55;;;2.20;99.90;;;;;;5051967;28;20052;-62
2021/01/07 01:11:12;;;;;;;1.13;0.80;;;2.10;99.90;;;;;;5052966;28;20041;-62
2021/01/07 01:13:43;;;;;;;2.20;0.93;;;2.10;99.90;;;;;;5068765;28;20067;-62
2021/01/07 01:16:31;;;;;;;2.55;0.93;;;2.20;99.90;;;;;;5063259;28;20065;-63
2021/01/07 01:19:14;;;;;;;1.08;0.60;;;2.20;99.90;;;;;;5052746;28;20377;-62
2021/01/07 01:26:14;;;;;;;0.90;0.52;;;2.10;99.90;;;;;;5045062;28;20040;-62
2021/01/07 01:28:46;;;;;;;1.40;0.75;;;2.20;99.90;;;;;;5033556;28;20034;-62
2021/01/07 01:31:13;;;;;;;0.55;0.38;;;2.10;99.90;;;;;;5033014;28;20053;-62
2021/01/07 01:33:45;;;;;;;2.35;0.70;;;2.20;99.90;;;;;;5048389;28;20053;-63
2021/01/07 01:36:46;;;;;;;1.42;0.70;;;2.20;99.90;;;;;;5032802;28;20042;-62
2021/01/07 01:39:13;;;;;;;1.33;0.60;;;2.20;99.90;;;;;;5062206;28;20064;-62
2021/01/07 01:42:04;;;;;;;2.13;0.65;;;2.20;99.90;;;;;;5076273;28;20043;-63
2021/01/07 01:44:34;;;;;;;1.50;0.77;;;2.20;99.90;;;;;;5042657;28;20045;-63
2021/01/07 01:51:16;;;;;;;1.90;0.50;;;2.10;99.90;;;;;;5060761;28;20443;-62
2021/01/07 01:53:48;;;;;;;1.10;0.60;;;2.20;99.90;;;;;;5036565;28;20054;-62
2021/01/07 01:56:16;;;;;;;1.38;0.65;;;2.10;99.90;;;;;;5036225;28;20129;-62
2021/01/07 01:58:46;;;;;;;2.72;0.70;;;2.10;99.90;;;;;;5066597;28;20111;-63
2021/01/07 02:01:19;;;;;;;2.05;0.70;;;2.20;99.90;;;;;;5036387;28;20041;-62
2021/01/07 02:03:44;;;;;;;1.90;0.75;;;2.20;99.90;;;;;;5064231;28;20048;-63
2021/01/07 02:06:22;;;;;;;2.05;0.75;;;2.20;99.90;;;;;;5074260;28;20050;-62
2021/01/07 02:08:50;;;;;;;2.55;0.85;;;2.20;99.90;;;;;;5057358;28;20037;-62
2021/01/07 02:11:22;;;;;;;1.33;0.63;;;2.20;99.90;;;;;;5061883;28;20060;-63
2021/01/07 02:13:49;;;;;;;2.00;0.90;;;2.20;99.90;;;;;;5065498;28;20045;-62
2021/01/07 02:16:20;;;;;;;1.92;0.80;;;2.20;99.90;;;;;;5069567;28;20037;-62
2021/01/07 02:18:52;;;;;;;1.42;0.70;;;2.20;99.90;;;;;;5062361;28;20040;-62
2021/01/07 02:21:24;;;;;;;1.38;0.77;;;2.20;99.90;;;;;;5055946;28;20041;-63
2021/01/07 02:24:24;;;;;;;1.88;0.68;;;2.20;99.90;;;;;;5065081;28;20036;-62
2021/01/07 02:26:55;;;;;;;1.42;0.75;;;2.20;99.90;;;;;;5043742;28;20033;-62
2021/01/07 02:29:30;;;;;;;2.35;0.82;;;2.20;99.90;;;;;;5040617;28;20040;-62
2021/01/07 02:32:48;;;;;;;1.77;0.80;;;2.20;99.90;;;;;;5055497;28;20044;-62
2021/01/07 02:38:53;;;;;;;1.77;0.90;;;2.30;99.90;;;;;;5059325;28;20128;-62
2021/01/07 02:41:25;;;;;;;1.95;0.60;;;2.30;99.90;;;;;;5073647;28;20045;-62
2021/01/07 02:43:51;;;;;;;1.25;0.75;;;2.30;99.90;;;;;;5055672;28;20048;-63
2021/01/07 02:46:22;;;;;;;2.88;0.77;;;2.30;99.90;;;;;;5071121;28;20037;-62
2021/01/07 02:48:54;;;;;;;1.73;0.73;;;2.30;99.90;;;;;;5047583;28;20080;-62
2021/01/07 02:51:27;;;;;;;1.95;0.85;;;2.30;99.90;;;;;;5058538;28;20442;-62
2021/01/07 02:53:55;;;;;;;0.85;0.60;;;2.30;99.90;;;;;;5067222;28;20044;-63
2021/01/07 02:56:26;;;;;;;1.30;0.52;;;2.30;99.90;;;;;;5074327;28;20036;-62
2021/01/07 02:58:59;;;;;;;1.00;0.55;;;2.30;99.90;;;;;;5059858;28;20048;-62
2021/01/07 03:01:28;;;;;;;2.22;0.75;;;2.40;99.90;;;;;;5053484;28;20037;-62
2021/01/07 03:11:28;;;;;;;2.13;0.80;;;2.30;99.90;;;;;;5060724;28;20090;-62
2021/01/07 03:14:02;;;;;;;2.28;0.73;;;2.30;99.90;;;;;;5074997;28;20068;-62
2021/01/07 03:16:36;;;;;;;1.25;0.57;;;2.40;99.90;;;;;;5035327;28;20048;-62
2021/01/07 03:26:32;;;;;;;0.93;0.50;;;2.40;99.90;;;;;;5034790;28;20056;-62
2021/01/07 03:29:06;;;;;;;2.22;0.80;;;2.40;99.90;;;;;;5056838;28;20496;-63
2021/01/07 03:31:32;;;;;;;1.00;0.55;;;2.40;99.90;;;;;;5068383;28;20123;-62
2021/01/07 03:34:09;;;;;;;2.88;0.63;;;2.40;99.90;;;;;;5060657;28;20580;-62
2021/01/07 03:36:41;;;;;;;1.20;0.60;;;2.30;99.90;;;;;;5061059;28;20442;-62
2021/01/07 03:39:06;;;;;;;0.73;0.47;;;2.30;99.90;;;;;;5038687;28;20045;-62
2021/01/07 03:41:35;;;;;;;1.27;0.63;;;2.30;99.90;;;;;;5057669;28;20477;-62
2021/01/07 03:44:08;;;;;;;0.77;0.50;;;2.30;99.90;;;;;;5034844;28;20045;-62
2021/01/07 03:46:37;;;;;;;1.88;0.45;;;2.30;99.90;;;;;;5055274;28;20499;-62
2021/01/07 03:49:17;;;;;;;1.58;0.70;;;2.30;99.90;;;;;;5056903;28;20437;-62
2021/01/07 03:51:58;;;;;;;1.20;0.57;;;2.50;99.90;;;;;;5058526;28;20048;-62
2021/01/07 03:54:30;;;;;;;0.90;0.50;;;2.40;99.90;;;;;;5056278;28;20045;-62
2021/01/07 04:01:24;;;;;;;1.00;0.47;;;2.40;99.90;;;;;;5058419;28;20534;-62
2021/01/07 04:03:55;;;;;;;1.38;0.50;;;2.40;99.90;;;;;;5063922;28;20076;-62
2021/01/07 04:06:48;;;;;;;1.90;0.70;;;2.40;99.90;;;;;;5073117;28;20037;-62
2021/01/07 04:09:36;;;;;;;1.30;0.50;;;2.40;99.90;;;;;;5038405;28;20048;-62
2021/01/07 04:12:06;;;;;;;1.58;0.60;;;2.40;99.90;;;;;;5053495;28;20044;-62
2021/01/07 04:19:00;;;;;;;1.00;0.50;;;2.30;99.90;;;;;;5053324;28;20036;-62
2021/01/07 04:21:29;;;;;;;0.70;0.47;;;2.30;99.90;;;;;;5033612;28;20048;-63
2021/01/07 04:24:02;;;;;;;1.33;0.63;;;2.30;99.90;;;;;;5071225;28;20040;-62
2021/01/07 04:26:30;;;;;;;1.00;0.52;;;2.40;99.90;;;;;;5058046;28;20544;-63
2021/01/07 04:32:51;;;;;;;1.67;0.55;;;2.40;99.90;;;;;;5055121;28;20416;-63
2021/01/07 04:39:00;;;;;;;1.02;0.50;;;2.40;99.90;;;;;;5071934;28;20400;-63
2021/01/07 04:41:31;;;;;;;2.13;0.70;;;2.40;99.90;;;;;;5061360;28;20037;-63
2021/01/07 04:44:01;;;;;;;0.98;0.50;;;2.40;99.90;;;;;;5047736;28;20045;-62
2021/01/07 04:46:31;;;;;;;2.17;0.70;;;2.40;99.90;;;;;;5033306;28;20116;-63
2021/01/07 04:49:08;;;;;;;2.35;0.80;;;2.40;99.90;;;;;;5071922;28;20036;-62
2021/01/07 04:51:49;;;;;;;1.25;0.68;;;2.50;99.90;;;;;;5057247;28;20049;-62
2021/01/07 04:54:19;;;;;;;1.48;0.70;;;2.50;99.90;;;;;;5037606;28;20056;-63
2021/01/07 04:57:21;;;;;;;1.10;0.60;;;2.50;99.90;;;;;;5057904;28;20419;-63
2021/01/07 04:59:49;;;;;;;0.85;0.50;;;2.50;99.90;;;;;;5072959;28;20484;-63
2021/01/07 05:02:49;;;;;;;0.90;0.57;;;2.50;99.90;;;;;;5070222;28;20539;-62
2021/01/07 05:05:19;;;;;;;1.50;0.57;;;2.60;99.90;;;;;;5060118;28;20068;-62
2021/01/07 05:11:31;;;;;;;1.73;0.63;;;2.50;99.90;;;;;;5032976;28;20511;-63
2021/01/07 05:14:05;;;;;;;1.65;0.88;;;2.60;99.90;;;;;;5055006;28;20086;-63
2021/01/07 05:16:37;;;;;;;1.92;0.82;;;2.50;99.90;;;;;;5056185;28;20110;-62
2021/01/07 05:19:08;;;;;;;1.73;0.80;;;2.60;99.90;;;;;;5058708;28;20037;-63
2021/01/07 05:21:36;;;;;;;1.17;0.65;;;2.70;99.90;;;;;;5072128;28;20051;-62
2021/01/07 05:24:33;;;;;;;2.28;1.00;;;2.50;99.90;;;;;;5061136;28;20037;-62
2021/01/07 05:34:04;;;;;;;3.17;1.02;;;2.60;99.90;;;;;;5059996;28;20115;-63
2021/01/07 05:36:34;;;;;;;1.92;1.00;;;2.50;99.90;;;;;;5056529;28;20037;-63
2021/01/07 05:39:06;;;;;;;1.02;0.65;;;2.60;99.90;;;;;;5066183;28;20048;-63
2021/01/07 05:41:34;;;;;;;3.55;1.00;;;2.60;99.90;;;;;;5036521;28;20084;-63
2021/01/07 05:44:08;;;;;;;1.92;1.10;;;2.60;99.90;;;;;;5036493;28;20073;-63
2021/01/07 05:46:35;;;;;;;1.13;0.73;;;2.60;99.90;;;;;;5036591;28;20056;-63
2021/01/07 05:49:06;;;;;;;1.65;0.85;;;2.60;99.90;;;;;;5064613;28;20470;-63
2021/01/07 05:51:37;;;;;;;2.92;1.00;;;2.70;99.90;;;;;;5065463;28;20042;-63
2021/01/07 05:54:05;;;;;;;1.98;0.90;;;2.70;99.90;;;;;;5072097;28;20052;-63
2021/01/07 05:56:39;;;;;;;2.05;0.82;;;2.60;99.90;;;;;;5059094;28;20045;-62
2021/01/07 05:59:08;;;;;;;2.38;1.00;;;2.70;99.90;;;;;;5058658;28;20045;-63
2021/01/07 06:02:29;;;;;;;2.10;1.00;;;2.70;99.90;;;;;;5066110;28;20048;-63
2021/01/07 06:05:04;;;;;;;2.50;1.10;;;2.70;99.90;;;;;;5075203;28;20096;-63
2021/01/07 06:07:32;;;;;;;2.13;1.00;;;2.70;99.90;;;;;;5065880;28;20056;-62
2021/01/07 06:10:06;;;;;;;1.45;0.82;;;2.70;99.90;;;;;;5056440;28;20079;-63
2021/01/07 06:12:40;;;;;;;1.67;0.90;;;2.70;99.90;;;;;;5035956;28;20041;-62
2021/01/07 06:15:16;;;;;;;4.22;1.00;;;2.70;99.90;;;;;;5060676;28;20076;-62
2021/01/07 06:17:46;;;;;;;1.38;0.68;;;2.70;99.90;;;;;;5060838;28;20086;-62
2021/01/07 06:20:21;;;;;;;1.55;0.80;;;2.70;99.90;;;;;;5066401;28;20476;-62
2021/01/07 06:22:56;;;;;;;2.28;1.00;;;2.70;99.90;;;;;;5061280;28;20041;-62
2021/01/07 06:25:25;;;;;;;2.20;1.00;;;2.70;99.90;;;;;;5056798;28;20493;-62
2021/01/07 06:27:54;;;;;;;1.90;1.10;;;2.70;99.90;;;;;;5070488;28;20048;-62
2021/01/07 06:30:22;;;;;;;1.60;0.85;;;2.70;99.90;;;;;;5073029;28;20047;-62
2021/01/07 06:33:08;;;;;;;2.13;0.90;;;2.70;99.90;;;;;;5070145;28;20458;-62
2021/01/07 06:36:06;;;;;;;1.17;0.80;;;2.80;99.90;;;;;;5055216;28;20049;-62
2021/01/07 06:38:33;;;;;;;2.03;1.02;;;2.70;99.90;;;;;;5053673;28;20069;-62
2021/01/07 06:45:09;;;;;;;2.47;0.80;;;2.70;99.90;;;;;;5057292;28;20032;-62
2021/01/07 06:47:39;;;;;;;2.05;1.00;;;2.80;99.90;;;;;;5067967;28;20040;-62
2021/01/07 06:50:13;;;;;;;2.28;1.08;;;2.80;99.90;;;;;;5070249;28;20044;-62
2021/01/07 06:52:45;;;;;;;2.80;1.20;;;2.80;99.90;;;;;;5059908;28;20045;-62
2021/01/07 06:55:19;;;;;;;2.97;1.20;;;2.80;99.90;;;;;;5060064;28;20503;-62
2021/01/07 06:57:59;;;;;;;2.22;1.08;;;2.70;99.90;;;;;;5070971;28;20446;-62
2021/01/07 07:00:46;;;;;;;2.20;1.00;;;2.80;99.90;;;;;;5058584;28;20101;-62
2021/01/07 07:03:18;;;;;;;1.67;1.00;;;2.80;99.90;;;;;;5061865;28;20059;-62
2021/01/07 07:05:54;;;;;;;3.90;1.42;;;2.80;99.90;;;;;;5074612;28;20049;-62
2021/01/07 07:12:30;;;;;;;2.95;1.27;;;2.80;99.90;;;;;;5059786;28;20079;-62
2021/01/07 07:15:22;;;;;;;1.88;1.00;;;2.80;99.90;;;;;;5062772;28;20388;-62
2021/01/07 07:17:56;;;;;;;1.73;0.93;;;2.80;99.90;;;;;;5054656;28;20048;-62
2021/01/07 07:20:25;;;;;;;4.00;1.40;;;2.80;99.90;;;;;;5074062;28;20055;-64
2021/01/07 07:22:53;;;;;;;2.78;1.02;;;2.90;99.90;;;;;;5058532;28;20056;-62
2021/01/07 07:25:28;;;;;;;2.92;1.23;;;2.80;99.90;;;;;;5055137;28;20477;-62
2021/01/07 07:28:11;;;;;;;3.33;1.45;;;2.90;99.90;;;;;;5061008;28;20048;-62
2021/01/07 07:31:23;;;;;;;4.05;1.30;;;2.80;99.90;;;;;;5058467;28;20041;-61
2021/01/07 07:34:27;;;;;;;2.85;1.33;;;2.80;99.90;;;;;;5045874;28;20120;-62
2021/01/07 07:36:53;;;;;;;2.15;1.40;;;2.90;99.90;;;;;;5053632;28;20041;-62
2021/01/07 07:43:01;;;;;;;2.15;1.05;;;2.90;99.90;;;;;;5056282;28;20045;-62
2021/01/07 07:45:35;;;;;;;3.58;1.73;;;2.90;99.90;;;;;;5058604;28;20501;-62
2021/01/07 07:48:26;;;;;;;;;;;2.90;99.90;;;;;;5064599;28;20072;-62
2021/01/07 07:51:10;;;;;;;2.58;1.00;;;2.90;99.90;;;;;;5069241;28;19943;-62
2021/01/07 07:54:02;;;;;;;1.98;1.10;;;2.90;99.90;;;;;;5061164;28;20064;-63
2021/01/07 08:00:20;;;;;;;2.03;0.98;;;2.90;99.90;;;;;;5059203;28;20051;-61
2021/01/07 08:02:59;;;;;;;2.10;1.17;;;2.90;99.90;;;;;;5068624;28;20110;-60
2021/01/07 08:05:27;;;;;;;2.85;1.35;;;2.90;99.90;;;;;;5067972;28;20048;-60
2021/01/07 08:07:55;;;;;;;2.30;1.17;;;2.90;99.90;;;;;;5054980;28;20040;-60
2021/01/07 08:10:23;;;;;;;2.40;1.08;;;2.90;99.90;;;;;;5059125;28;20072;-60
2021/01/07 08:12:51;;;;;;;1.70;1.05;;;2.90;99.90;;;;;;5058081;28;20037;-60
2021/01/07 08:16:03;;;;;;;2.88;1.33;;;2.90;99.90;;;;;;5055735;28;20048;-61
2021/01/07 08:18:30;;;;;;;2.40;1.42;;;2.90;99.90;;;;;;5053437;28;20041;-60
2021/01/07 08:21:20;;;;;;;2.47;1.35;;;2.90;99.90;;;;;;5058288;28;20467;-61
2021/01/07 08:27:52;;;;;;;3.53;1.58;;;2.90;99.90;;;;;;5073042;28;20398;-62
2021/01/07 08:30:20;;;;;;;5.20;1.92;;;2.90;99.90;;;;;;5068890;28;20048;-62
2021/01/07 08:32:57;;;;;;;4.68;1.48;;;2.90;99.90;;;;;;5062812;28;20430;-63
2021/01/07 08:35:23;;;;;;;3.05;1.50;;;2.90;99.90;;;;;;5070842;28;20044;-63
2021/01/07 08:37:51;;;;;;;3.55;1.60;;;2.90;99.90;;;;;;5070839;28;20094;-64
2021/01/07 08:40:31;;;;;;;2.13;1.27;;;2.90;99.90;;;;;;5054240;28;20051;-62
2021/01/07 08:43:31;;;;;;;2.97;1.30;;;3.00;99.90;;;;;;5079986;28;20120;-62
2021/01/07 08:46:14;;;;;;;5.93;1.77;;;3.00;99.90;;;;;;5072413;28;20040;-62
2021/01/07 08:53:08;;;;;;;2.00;0.93;;;3.00;99.90;;;;;;5061845;28;20071;-64
2021/01/07 08:55:52;;;;;;;2.30;1.05;;;3.00;99.90;;;;;;5039245;28;20052;-63
2021/01/07 08:58:26;;;;;;;4.07;1.40;;;3.00;99.90;;;;;;5041103;28;20087;-64
2021/01/07 09:01:02;;;;;;;3.40;1.73;;;3.10;99.90;;;;;;5061316;28;20476;-62
2021/01/07 09:03:36;;;;;;;2.88;1.58;;;3.10;99.90;;;;;;5042722;28;20041;-62
2021/01/07 09:10:20;;;;;;;3.13;1.33;;;3.10;99.90;;;;;;5041327;28;20048;-62
2021/01/07 09:12:52;;;;;;;2.60;1.23;;;3.20;99.90;;;;;;5069713;28;20037;-62
2021/01/07 09:15:26;;;;;;;3.22;1.55;;;3.20;99.90;;;;;;5077571;28;20087;-62
2021/01/07 09:17:56;;;;;;;5.18;1.65;;;3.20;99.90;;;;;;5076280;28;20093;-62
2021/01/07 09:20:33;;;;;;;3.65;1.42;;;3.20;99.90;;;;;;5066909;28;20049;-61
2021/01/07 09:23:08;;;;;;;3.75;1.55;;;3.20;99.90;;;;;;5053847;28;20063;-61
2021/01/07 09:25:44;;;;;;;6.57;1.50;;;3.20;99.90;;;;;;5040131;28;20049;-63
2021/01/07 09:28:19;;;;;;;4.13;1.30;;;3.30;99.90;;;;;;5040629;28;20076;-62
2021/01/07 09:30:52;;;;;;;3.33;1.17;;;3.30;99.90;;;;;;5058234;28;20052;-62
2021/01/07 09:41:05;;;;;;;2.33;1.13;;;3.30;99.90;;;;;;5064652;28;20091;-61
2021/01/07 09:50:55;;;;;;;5.05;1.70;;;3.50;99.90;;;;;;5068186;28;20066;-61
2021/01/07 09:53:26;;;;;;;5.32;1.50;;;3.50;99.90;;;;;;5064608;28;20041;-61
2021/01/07 09:55:59;;;;;;;3.50;1.58;;;3.50;99.90;;;;;;5076112;28;20041;-61
2021/01/07 09:58:25;;;;;;;4.13;1.27;;;3.50;99.90;;;;;;5055141;28;20040;-62
2021/01/07 10:00:57;;;;;;;2.10;0.90;;;3.50;99.90;;;;;;5065791;28;20040;-61
2021/01/07 10:11:37;;;;;;;2.78;1.13;;;3.50;99.90;;;;;;5073349;28;20051;-61
2021/01/07 10:14:05;;;;;;;3.25;1.05;;;3.50;99.90;;;;;;5065176;28;20040;-61
2021/01/07 10:16:36;;;;;;;3.58;1.08;;;3.50;99.90;;;;;;5061477;28;20041;-63
2021/01/07 10:19:10;;;;;;;3.05;1.25;;;3.60;99.90;;;;;;5035905;28;20037;-63
2021/01/07 10:21:53;;;;;;;1.95;0.93;;;3.60;99.90;;;;;;5038645;28;20133;-63
2021/01/07 10:24:25;;;;;;;2.63;1.25;;;3.60;99.90;;;;;;5059794;28;20037;-62
2021/01/07 10:27:19;;;;;;;2.58;1.40;;;3.60;99.90;;;;;;5058521;28;20037;-62
2021/01/07 10:34:06;;;;;;;3.75;1.10;;;3.70;99.90;;;;;;5035391;28;20036;-63
2021/01/07 10:36:49;;;;;;;1.92;1.00;;;3.70;99.90;;;;;;5035787;28;20092;-63
2021/01/07 10:39:26;;;;;;;2.92;1.27;;;3.70;99.90;;;;;;5067463;28;20106;-63
2021/01/07 10:41:55;;;;;;;2.55;1.10;;;3.80;99.90;;;;;;5063794;28;20122;-63
2021/01/07 10:44:52;;;;;;;2.35;1.10;;;3.80;99.90;;;;;;5061919;28;20045;-62
2021/01/07 10:47:29;;;;;;;2.05;0.90;;;3.80;99.90;;;;;;5051352;28;20437;-62
2021/01/07 10:50:34;;;;;;;2.83;1.13;;;3.90;99.90;;;;;;5070868;28;20056;-62
2021/01/07 10:56:57;;;;;;;2.42;0.98;;;4.00;99.90;;;;;;5062324;28;20446;-62
2021/01/07 11:00:06;;;;;;;2.00;0.98;;;4.00;99.90;;;;;;5055387;28;20044;-62
2021/01/07 11:03:10;;;;;;;2.03;1.00;;;4.10;99.90;;;;;;5047137;28;20087;-63
2021/01/07 11:09:52;;;;;;;2.65;1.20;;;4.20;99.90;;;;;;5059667;28;20068;-63
2021/01/07 11:16:41;;;;;;;2.30;1.17;;;4.30;99.90;;;;;;5060448;28;20078;-61
2021/01/07 11:19:14;;;;;;;1.75;0.77;;;4.30;99.90;;;;;;5061662;28;20123;-62
2021/01/07 11:22:24;;;;;;;2.23;0.93;;;4.40;99.90;;;;;;5054676;28;20041;-62
2021/01/07 11:29:11;;;;;;;2.33;0.80;;;4.40;99.90;;;;;;5051522;28;20396;-63
2021/01/07 11:32:24;;;;;;;1.30;0.70;;;4.40;99.90;;;;;;5034440;28;20041;-62
2021/01/07 11:34:54;;;;;;;3.17;0.90;;;4.40;99.90;;;;;;5054211;28;20175;-62
2021/01/07 11:37:42;;;;;;;1.73;0.85;;;4.40;99.90;;;;;;5059539;28;20052;-62
2021/01/07 11:40:48;;;;;;;1.67;0.85;;;4.50;99.90;;;;;;5056218;28;20044;-62
2021/01/07 11:47:37;;;;;;;1.83;0.70;;;4.50;99.90;;;;;;5049984;28;20036;-62
2021/01/07 11:50:28;;;;;;;3.38;0.77;;;4.50;99.90;;;;;;5033934;28;20041;-62
2021/01/07 11:53:43;;;;;;;0.88;0.50;;;4.40;99.90;;;;;;5065000;28;20047;-62
2021/01/07 11:59:56;;;;;;;0.73;0.43;;;4.40;99.90;;;;;;5052889;28;20436;-62
2021/01/07 12:02:24;;;;;;;0.77;0.50;;;4.40;99.90;;;;;;5058577;28;20453;-62
2021/01/07 12:05:04;;;;;;;0.90;0.50;;;4.40;99.90;;;;;;5056746;28;20120;-63
2021/01/07 12:08:08;;;;;;;2.22;0.50;;;4.50;99.90;;;;;;5062829;28;20032;-61
2021/01/07 12:10:44;;;;;;;2.17;0.50;;;4.50;99.90;;;;;;5057636;28;20143;-61
2021/01/07 12:13:36;;;;;;;0.70;0.40;;;4.50;99.90;;;;;;5045262;28;20079;-61
2021/01/07 12:20:01;;;;;;;1.30;0.60;;;4.50;99.90;;;;;;5058792;28;20040;-61
2021/01/07 12:22:28;;;;;;;3.13;0.98;;;4.60;99.90;;;;;;5058874;28;20052;-61
2021/01/07 12:25:03;;;;;;;1.63;0.75;;;4.60;99.90;;;;;;5058190;28;20060;-62
2021/01/07 12:27:39;;;;;;;2.08;0.90;;;4.60;99.90;;;;;;5055385;28;20040;-62
2021/01/07 12:30:19;;;;;;;3.72;1.65;;;4.60;99.90;;;;;;5073175;28;20047;-62
2021/01/07 12:33:21;;;;;;;2.13;0.90;;;4.60;99.90;;;;;;5055817;28;20037;-62
2021/01/07 12:36:06;;;;;;;1.98;0.70;;;4.60;99.90;;;;;;5055538;28;20057;-62
2021/01/07 12:42:35;;;;;;;3.58;0.60;;;4.60;99.90;;;;;;5061252;28;20056;-62
2021/01/07 12:45:03;;;;;;;1.65;0.70;;;4.60;99.90;;;;;;5049317;28;20080;-63
2021/01/07 12:47:31;;;;;;;3.85;0.80;;;4.60;99.90;;;;;;5068106;28;20070;-62
2021/01/07 12:50:04;;;;;;;1.00;0.55;;;4.60;99.90;;;;;;5044612;28;20073;-62
2021/01/07 12:52:47;;;;;;;0.88;0.60;;;4.60;99.90;;;;;;5061810;28;20507;-62
2021/01/07 12:55:19;;;;;;;0.82;0.50;;;4.60;99.90;;;;;;5063963;28;20040;-62
2021/01/07 12:58:27;;;;;;;0.57;0.40;;;4.60;99.90;;;;;;5072645;28;20041;-62
2021/01/07 13:05:11;;;;;;;0.80;0.40;;;4.60;99.90;;;;;;5050690;28;20075;-62
2021/01/07 13:08:16;;;;;;;0.73;0.40;;;4.70;99.90;;;;;;5066412;28;20119;-62
2021/01/07 13:10:42;;;;;;;1.60;0.60;;;4.70;99.90;;;;;;5038394;28;20072;-62
2021/01/07 13:17:41;;;;;;;0.75;0.40;;;4.60;99.90;;;;;;5064311;28;20031;-62
2021/01/07 13:20:08;;;;;;;0.68;0.38;;;4.60;99.90;;;;;;5062416;28;20070;-62
2021/01/07 13:22:36;;;;;;;0.45;0.30;;;4.60;99.90;;;;;;5056035;28;20057;-62
2021/01/07 13:25:13;;;;;;;1.45;0.60;;;4.60;99.90;;;;;;5072731;28;20048;-62
2021/01/07 13:27:42;;;;;;;0.47;0.30;;;4.60;99.90;;;;;;5053822;28;20068;-62
2021/01/07 13:30:13;;;;;;;0.65;0.45;;;4.60;99.90;;;;;;5055289;28;20195;-63
2021/01/07 13:32:51;;;;;;;1.15;0.38;;;4.50;99.90;;;;;;5058012;28;20128;-62
2021/01/07 13:35:40;;;;;;;1.42;0.63;;;4.50;99.90;;;;;;5066233;28;20040;-64
2021/01/07 13:38:31;;;;;;;2.55;0.80;;;4.50;99.90;;;;;;5037180;28;20123;-62
2021/01/07 13:41:18;;;;;;;0.82;0.40;;;4.50;99.90;;;;;;5038900;28;20057;-62
2021/01/07 13:48:10;;;;;;;0.40;0.30;;;4.50;99.90;;;;;;5055064;28;20488;-62
2021/01/07 13:50:47;;;;;;;0.30;0.30;;;4.50;99.90;;;;;;5036240;28;20045;-62
2021/01/07 13:53:21;;;;;;;0.85;0.32;;;4.50;99.90;;;;;;5045237;28;20045;-62
2021/01/07 13:55:56;;;;;;;0.80;0.43;;;4.50;99.90;;;;;;5076395;28;20039;-62
2021/01/07 13:58:48;;;;;;;0.43;0.40;;;4.50;99.90;;;;;;5058284;28;20041;-62
2021/01/07 14:01:33;;;;;;;0.50;0.40;;;4.40;99.90;;;;;;5071133;28;20127;-62
2021/01/07 14:04:27;;;;;;;0.82;0.40;;;4.40;99.90;;;;;;5075862;28;20051;-62
2021/01/07 14:10:42;;;;;;;1.08;0.30;;;4.20;99.90;;;;;;5056567;28;20059;-63
2021/01/07 14:13:12;;;;;;;0.25;0.25;;;4.20;99.90;;;;;;5035377;28;20072;-63
2021/01/07 14:15:43;;;;;;;1.02;0.47;;;4.20;99.90;;;;;;5035840;28;20129;-62
2021/01/07 14:18:17;;;;;;;0.95;0.30;;;4.20;99.90;;;;;;5060772;28;20447;-62
2021/01/07 14:23:46;;;;;;;1.52;0.35;;;4.20;99.90;;;;;;5069774;28;19970;-62
2021/01/07 14:26:20;;;;;;;0.40;0.30;;;4.20;99.90;;;;;;5067472;28;20048;-62
2021/01/07 14:28:51;;;;;;;4.30;0.65;;;4.20;99.90;;;;;;5061322;28;20041;-62
2021/01/07 14:31:22;;;;;;;1.63;0.60;;;4.20;99.90;;;;;;5060591;28;20048;-62
2021/01/07 14:34:04;;;;;;;1.70;0.63;;;4.20;99.90;;;;;;5060326;28;20107;-63
2021/01/07 14:43:48;;;;;;;1.27;0.52;;;4.10;99.90;;;;;;5053299;28;20064;-62
2021/01/07 14:53:46;;;;;;;6.53;2.35;;;4.00;99.90;;;;;;5060862;28;20045;-63
2021/01/07 14:56:32;;;;;;;5.75;2.10;;;3.90;99.90;;;;;;5071928;28;20045;-63
2021/01/07 14:59:35;;;;;;;1.80;0.90;;;4.00;99.90;;;;;;5065890;28;20477;-63
2021/01/07 15:06:19;;;;;;;1.08;0.45;;;3.90;99.90;;;;;;5058339;28;20036;-64
2021/01/07 15:09:32;;;;;;;0.40;0.30;;;3.90;99.90;;;;;;5069709;28;20087;-64
2021/01/07 15:12:34;;;;;;;0.90;0.30;;;3.80;99.90;;;;;;5036519;28;20431;-64
2021/01/07 15:15:13;;;;;;;1.20;0.55;;;3.80;99.90;;;;;;5042817;28;20513;-65
2021/01/07 15:25:06;;;;;;;0.57;0.40;;;3.80;99.90;;;;;;5043852;28;20044;-64
2021/01/07 15:28:25;;;;;;;0.90;0.50;;;3.80;99.90;;;;;;5040693;28;20418;-63
2021/01/07 15:31:47;;;;;;;0.90;0.40;;;3.80;99.90;;;;;;5057912;28;20132;-63
2021/01/07 15:34:32;;;;;;;1.27;0.50;;;3.80;99.90;;;;;;5055792;28;20041;-63
2021/01/07 15:44:59;;;;;;;0.93;0.45;;;3.80;99.90;;;;;;5060321;28;20408;-63
2021/01/07 15:51:48;;;;;;;0.65;0.32;;;3.70;99.90;;;;;;5038710;28;20052;-63
2021/01/07 15:54:33;;;;;;;1.33;0.50;;;3.60;99.90;;;;;;5070617;28;20041;-63
2021/01/07 15:57:36;;;;;;;1.55;0.90;;;3.70;99.90;;;;;;5065392;28;20097;-63
2021/01/07 16:00:37;;;;;;;1.17;0.55;;;3.70;99.90;;;;;;5055939;28;20048;-63
2021/01/07 16:07:02;;;;;;;1.33;0.70;;;3.70;99.90;;;;;;5067008;28;20043;-63
2021/01/07 16:09:47;;;;;;;1.73;0.80;;;3.70;99.90;;;;;;5051791;28;20032;-63
2021/01/07 16:12:21;;;;;;;1.15;0.55;;;3.70;99.90;;;;;;5037268;28;20041;-63
2021/01/07 16:14:57;;;;;;;1.30;0.52;;;3.70;99.90;;;;;;5037920;28;20485;-63
2021/01/07 16:21:46;;;;;;;3.00;0.60;;;3.70;99.90;;;;;;5058252;28;20091;-63
2021/01/07 16:24:23;;;;;;;1.75;0.80;;;3.70;99.90;;;;;;5053561;28;20118;-64
2021/01/07 16:26:58;;;;;;;4.38;0.70;;;3.80;99.90;;;;;;5048089;28;20417;-64
2021/01/07 16:29:37;;;;;;;1.55;0.80;;;3.80;99.90;;;;;;5054216;28;20045;-64
2021/01/07 16:39:16;;;;;;;1.20;0.50;;;3.80;99.90;;;;;;5064724;28;20060;-66
2021/01/07 16:41:48;;;;;;;2.10;0.90;;;3.80;99.90;;;;;;5057586;28;20037;-66
2021/01/07 16:44:16;;;;;;;1.20;0.60;;;3.70;99.90;;;;;;5049505;28;20127;-62
2021/01/07 16:46:46;;;;;;;1.70;0.50;;;3.80;99.90;;;;;;5053608;28;20055;-63
2021/01/07 16:49:18;;;;;;;1.25;0.50;;;3.70;99.90;;;;;;5067608;28;20056;-63
2021/01/07 16:51:45;;;;;;;1.58;0.77;;;3.70;99.90;;;;;;5074012;28;20052;-63
2021/01/07 16:54:13;;;;;;;1.95;0.68;;;3.80;99.90;;;;;;5073280;28;20565;-65
2021/01/07 16:56:45;;;;;;;1.63;0.55;;;3.70;99.90;;;;;;5073519;28;20098;-64
2021/01/07 16:59:14;;;;;;;1.75;0.77;;;3.70;99.90;;;;;;5031993;28;20046;-64
2021/01/07 17:01:47;;;;;;;2.75;1.05;;;3.70;99.90;;;;;;5033151;28;20076;-64
2021/01/07 17:04:17;;;;;;;3.70;1.42;;;3.80;99.90;;;;;;5033529;28;20115;-65
2021/01/07 17:06:46;;;;;;;3.17;1.00;;;3.70;99.90;;;;;;5062905;28;20047;-64
2021/01/07 17:09:18;;;;;;;2.25;1.20;;;3.80;99.90;;;;;;5060327;28;20112;-64
2021/01/07 17:11:46;;;;;;;1.88;0.90;;;3.90;99.90;;;;;;5051192;28;20136;-64
2021/01/07 17:14:31;;;;;;;3.63;1.30;;;3.80;99.90;;;;;;5040723;28;20268;-65
2021/01/07 17:17:32;;;;;;;1.55;1.00;;;3.80;99.90;;;;;;5058307;28;20115;-63
2021/01/07 17:24:16;;;;;;;1.67;0.70;;;3.80;99.90;;;;;;5045364;28;20056;-65
2021/01/07 17:26:51;;;;;;;1.42;0.70;;;3.80;99.90;;;;;;5055192;28;20049;-63
2021/01/07 17:29:17;;;;;;;2.40;0.65;;;3.80;99.90;;;;;;5037309;28;20046;-62
2021/01/07 17:31:48;;;;;;;2.38;0.73;;;3.70;99.90;;;;;;5061700;28;20045;-63
2021/01/07 17:34:23;;;;;;;2.70;1.30;;;3.70;99.90;;;;;;5056579;28;20052;-62
2021/01/07 17:36:51;;;;;;;2.00;0.90;;;3.80;99.90;;;;;;5056396;28;20477;-63
2021/01/07 17:39:29;;;;;;;1.90;1.00;;;3.70;99.90;;;;;;5071522;28;20119;-63
2021/01/07 17:42:32;;;;;;;1.65;0.90;;;3.70;99.90;;;;;;5071140;28;20048;-63